Time;durP1;ratioP1;P1;durP2;ratioP2;P2;SDS_P1;SDS_P2;PMS_P1;PMS_P2;Temp;Humidity;BMP_temperature;BMP_pressure;BME280_temperature;BME280_humidity;BME280_pressure;Samples;Min_cycle;Max_cycle;Signal;HPM_P1;HPM_P2
2024/04/06 00:02:21;;;;;;;1.63;1.40;;;15.30;89.50;;;;;;5033074;28;20021;-67
2024/04/06 00:04:46;;;;;;;2.67;1.30;;;15.30;89.50;;;;;;5031028;28;20036;-66
2024/04/06 00:07:12;;;;;;;1.30;1.10;;;15.30;89.50;;;;;;5032892;28;20124;-66
2024/04/06 00:09:37;;;;;;;1.60;1.20;;;15.30;89.50;;;;;;5032508;28;20033;-65
2024/04/06 00:12:04;;;;;;;1.80;1.27;;;15.30;89.50;;;;;;5030147;28;20021;-66
2024/04/06 00:14:29;;;;;;;2.10;1.60;;;15.30;89.60;;;;;;5027578;28;20080;-66
2024/04/06 00:16:55;;;;;;;1.45;1.30;;;15.20;89.80;;;;;;5031525;28;20510;-67
2024/04/06 00:19:21;;;;;;;2.35;1.50;;;15.30;89.90;;;;;;5028108;28;20048;-64
2024/04/06 00:21:46;;;;;;;3.40;1.40;;;15.30;90.00;;;;;;5030148;28;20036;-67
2024/04/06 00:24:12;;;;;;;3.78;1.77;;;15.30;90.10;;;;;;5028349;28;20483;-66
2024/04/06 00:26:38;;;;;;;2.60;1.30;;;15.30;90.20;;;;;;5025513;28;20033;-67
2024/04/06 00:29:03;;;;;;;1.75;1.30;;;15.30;90.30;;;;;;5035284;28;20029;-67
2024/04/06 00:31:29;;;;;;;1.33;1.20;;;15.30;90.60;;;;;;5028610;28;20026;-67
2024/04/06 00:33:56;;;;;;;1.30;1.15;;;15.30;90.30;;;;;;5023726;28;20029;-67
2024/04/06 00:36:22;;;;;;;2.67;1.33;;;15.30;90.40;;;;;;5028765;28;20021;-66
2024/04/06 00:38:47;;;;;;;2.65;1.42;;;15.30;90.40;;;;;;5031843;28;20037;-66
2024/04/06 00:41:13;;;;;;;2.08;1.35;;;15.30;90.50;;;;;;5031033;28;20021;-64
2024/04/06 00:43:39;;;;;;;2.10;1.50;;;15.30;90.50;;;;;;5029041;28;20025;-66
2024/04/06 00:46:04;;;;;;;2.38;1.15;;;15.30;90.50;;;;;;5035880;28;20063;-65
2024/04/06 00:48:30;;;;;;;3.45;1.67;;;15.30;90.60;;;;;;5025577;28;20025;-66
2024/04/06 00:51:04;;;;;;;2.80;1.50;;;15.30;90.70;;;;;;5027756;28;20009;-66
2024/04/06 00:53:30;;;;;;;2.88;1.80;;;15.30;90.80;;;;;;5030181;28;20056;-65
2024/04/06 00:55:56;;;;;;;2.67;1.40;;;15.30;91.00;;;;;;5030082;28;20056;-66
2024/04/06 00:58:21;;;;;;;1.50;1.40;;;15.30;91.00;;;;;;5031145;28;20021;-65
2024/04/06 01:00:47;;;;;;;2.13;1.10;;;15.40;91.00;;;;;;5030543;28;20033;-65
2024/04/06 01:03:13;;;;;;;3.70;1.50;;;15.40;91.10;;;;;;5032107;28;20091;-65
2024/04/06 01:05:39;;;;;;;2.30;1.35;;;15.40;91.10;;;;;;5026311;28;20022;-65
2024/04/06 01:08:05;;;;;;;1.45;1.20;;;15.40;91.10;;;;;;5025234;28;20677;-65
2024/04/06 01:10:31;;;;;;;2.05;1.20;;;15.50;91.20;;;;;;5029845;28;20033;-66
2024/04/06 01:12:57;;;;;;;3.55;1.40;;;15.50;91.30;;;;;;5033538;28;20479;-66
2024/04/06 01:15:23;;;;;;;2.53;1.20;;;15.40;91.30;;;;;;5029911;28;20052;-67
2024/04/06 01:17:51;;;;;;;1.20;1.10;;;15.50;91.40;;;;;;5029357;28;20029;-66
2024/04/06 01:20:17;;;;;;;1.63;0.80;;;15.50;91.30;;;;;;5024713;28;20069;-67
2024/04/06 01:22:42;;;;;;;2.10;1.17;;;15.60;91.30;;;;;;5025925;28;20057;-67
2024/04/06 01:25:08;;;;;;;1.25;1.02;;;15.60;91.30;;;;;;5023502;28;20072;-66
2024/04/06 01:27:34;;;;;;;1.48;1.00;;;15.60;91.30;;;;;;5026776;28;20029;-66
2024/04/06 01:30:00;;;;;;;2.25;1.17;;;15.60;91.30;;;;;;5027769;28;20032;-63
2024/04/06 01:32:25;;;;;;;2.00;1.23;;;15.60;91.40;;;;;;5029468;28;20203;-66
2024/04/06 01:34:51;;;;;;;1.60;1.17;;;15.60;91.40;;;;;;5024683;28;20105;-67
2024/04/06 01:37:17;;;;;;;1.15;1.00;;;15.60;91.40;;;;;;5032568;28;20056;-66
2024/04/06 01:39:43;;;;;;;1.33;1.10;;;15.60;91.40;;;;;;5028658;28;20052;-67
2024/04/06 01:42:08;;;;;;;0.93;0.82;;;15.70;91.40;;;;;;5031100;28;20519;-65
2024/04/06 01:44:34;;;;;;;1.15;1.00;;;15.70;91.40;;;;;;5025986;28;20163;-67
2024/04/06 01:47:00;;;;;;;0.70;0.70;;;15.70;91.30;;;;;;5029715;28;20029;-66
2024/04/06 01:49:25;;;;;;;0.80;0.80;;;15.80;91.30;;;;;;5033175;28;20487;-67
2024/04/06 01:51:52;;;;;;;1.35;1.00;;;15.80;91.30;;;;;;5026926;28;20100;-67
2024/04/06 01:54:17;;;;;;;1.27;1.00;;;15.80;91.30;;;;;;5022969;28;20116;-66
2024/04/06 01:56:45;;;;;;;0.70;0.70;;;15.70;91.40;;;;;;5033921;28;20441;-65
2024/04/06 01:59:10;;;;;;;1.15;0.77;;;15.80;91.40;;;;;;5026385;28;20445;-66
2024/04/06 02:01:37;;;;;;;0.93;0.82;;;15.80;91.40;;;;;;5021591;28;20025;-66
2024/04/06 02:04:02;;;;;;;1.40;0.80;;;15.80;91.30;;;;;;5025608;28;20410;-66
2024/04/06 02:06:28;;;;;;;0.95;0.70;;;15.80;91.30;;;;;;5026662;28;20028;-65
2024/04/06 02:08:53;;;;;;;1.00;0.73;;;15.80;91.30;;;;;;5033322;28;20025;-66
2024/04/06 02:11:19;;;;;;;0.65;0.63;;;15.80;91.30;;;;;;5033429;28;20078;-66
2024/04/06 02:13:44;;;;;;;1.00;0.80;;;15.80;91.30;;;;;;5023730;28;20097;-65
2024/04/06 02:16:10;;;;;;;2.38;1.08;;;15.80;91.30;;;;;;5024290;28;20022;-65
2024/04/06 02:18:35;;;;;;;1.25;0.85;;;15.80;91.40;;;;;;5027677;28;20040;-66
2024/04/06 02:21:01;;;;;;;1.13;0.98;;;15.80;91.40;;;;;;5030619;28;20518;-67
2024/04/06 02:23:26;;;;;;;0.95;0.93;;;15.70;91.40;;;;;;5034140;28;20053;-65
2024/04/06 02:25:52;;;;;;;0.93;0.77;;;15.80;91.40;;;;;;5034500;28;20132;-67
2024/04/06 02:28:18;;;;;;;0.77;0.60;;;15.80;91.40;;;;;;5027936;28;20112;-68
2024/04/06 02:30:45;;;;;;;0.80;0.80;;;15.80;91.40;;;;;;5030517;28;20025;-66
2024/04/06 02:33:10;;;;;;;0.98;0.68;;;15.80;91.50;;;;;;5037393;28;20160;-67
2024/04/06 02:35:36;;;;;;;0.80;0.80;;;15.70;91.40;;;;;;5029245;28;20145;-68
2024/04/06 02:38:02;;;;;;;0.95;0.80;;;15.70;91.50;;;;;;5035795;28;20399;-65
2024/04/06 02:40:27;;;;;;;0.57;0.50;;;15.70;91.50;;;;;;5032190;28;20099;-66
2024/04/06 02:42:53;;;;;;;0.40;0.40;;;15.70;91.60;;;;;;5026117;28;20077;-66
2024/04/06 02:45:19;;;;;;;0.90;0.70;;;15.60;91.60;;;;;;5033127;28;20043;-66
2024/04/06 02:47:44;;;;;;;1.08;0.60;;;15.60;91.60;;;;;;5021998;28;20022;-68
2024/04/06 02:50:10;;;;;;;0.98;0.70;;;15.70;91.60;;;;;;5025700;28;20500;-66
2024/04/06 02:52:36;;;;;;;0.75;0.75;;;15.60;91.60;;;;;;5026430;28;20044;-66
2024/04/06 02:55:04;;;;;;;1.13;0.82;;;15.60;91.60;;;;;;5025237;28;20021;-66
2024/04/06 02:57:30;;;;;;;1.42;0.80;;;15.60;91.60;;;;;;5030723;28;20026;-65
2024/04/06 02:59:55;;;;;;;0.60;0.60;;;15.50;91.60;;;;;;5030819;28;20111;-66
2024/04/06 03:02:22;;;;;;;0.70;0.70;;;15.60;91.60;;;;;;5032965;28;20021;-67
2024/04/06 03:04:48;;;;;;;0.80;0.60;;;15.60;91.60;;;;;;5030226;28;20435;-66
2024/04/06 03:07:14;;;;;;;0.88;0.60;;;15.60;91.60;;;;;;5022779;28;20021;-66
2024/04/06 03:09:40;;;;;;;0.50;0.50;;;15.50;91.60;;;;;;5025130;28;20030;-66
2024/04/06 03:12:06;;;;;;;0.88;0.60;;;15.50;91.70;;;;;;5033654;28;20488;-66
2024/04/06 03:14:32;;;;;;;1.42;0.90;;;15.50;91.70;;;;;;5032326;28;20032;-66
2024/04/06 03:16:58;;;;;;;0.70;0.70;;;15.40;91.70;;;;;;5031873;28;20025;-67
2024/04/06 03:19:24;;;;;;;1.30;0.90;;;15.40;91.80;;;;;;5031421;28;20025;-67
2024/04/06 03:21:50;;;;;;;1.10;1.00;;;15.40;91.90;;;;;;5035001;28;20017;-66
2024/04/06 03:24:16;;;;;;;2.05;0.95;;;15.30;91.90;;;;;;5022801;28;20033;-65
2024/04/06 03:26:45;;;;;;;1.00;0.70;;;15.30;92.00;;;;;;5031848;28;20032;-65
2024/04/06 03:29:11;;;;;;;1.02;0.70;;;15.20;92.00;;;;;;5025296;28;20044;-67
2024/04/06 03:31:37;;;;;;;0.75;0.73;;;15.20;92.00;;;;;;5035977;28;20540;-66
2024/04/06 03:34:02;;;;;;;0.60;0.60;;;15.20;92.10;;;;;;5035034;28;20017;-65
2024/04/06 03:36:28;;;;;;;0.80;0.68;;;15.20;92.10;;;;;;5025939;28;20021;-64
2024/04/06 03:38:53;;;;;;;0.65;0.65;;;15.20;92.10;;;;;;5029525;28;20040;-65
2024/04/06 03:41:19;;;;;;;0.70;0.70;;;15.10;92.10;;;;;;5042454;28;20026;-67
2024/04/06 03:43:44;;;;;;;0.63;0.63;;;15.10;92.20;;;;;;5034746;28;20501;-66
2024/04/06 03:46:10;;;;;;;0.50;0.50;;;15.10;92.20;;;;;;5033350;28;20025;-65
2024/04/06 03:48:36;;;;;;;0.50;0.50;;;15.10;92.50;;;;;;5031727;28;20025;-65
2024/04/06 03:51:01;;;;;;;0.60;0.60;;;15.00;92.20;;;;;;5038387;28;20022;-66
2024/04/06 03:53:32;;;;;;;0.63;0.63;;;15.00;92.20;;;;;;5030952;28;20026;-65
2024/04/06 03:55:57;;;;;;;0.77;0.70;;;15.00;92.30;;;;;;5024690;28;20020;-66
2024/04/06 03:58:23;;;;;;;0.70;0.70;;;15.00;92.30;;;;;;5028423;28;20375;-65
2024/04/06 04:00:48;;;;;;;0.90;0.60;;;15.00;92.60;;;;;;5028415;28;20030;-65
2024/04/06 04:03:14;;;;;;;0.68;0.68;;;15.00;92.30;;;;;;5022100;28;20093;-67
2024/04/06 04:05:40;;;;;;;0.60;0.60;;;15.00;92.30;;;;;;5028785;28;20476;-66
2024/04/06 04:08:05;;;;;;;0.60;0.60;;;14.90;92.20;;;;;;5030688;28;20025;-66
2024/04/06 04:10:31;;;;;;;0.60;0.60;;;14.90;92.20;;;;;;5026943;28;20025;-66
2024/04/06 04:12:57;;;;;;;0.57;0.55;;;14.90;92.20;;;;;;5035805;28;20429;-66
2024/04/06 04:15:23;;;;;;;0.68;0.68;;;14.90;92.20;;;;;;5024750;28;20025;-66
2024/04/06 04:17:49;;;;;;;0.50;0.50;;;14.90;92.20;;;;;;5018056;28;20076;-66
2024/04/06 04:20:15;;;;;;;0.63;0.63;;;14.80;92.20;;;;;;5021111;28;20086;-66
2024/04/06 04:22:40;;;;;;;1.85;0.80;;;14.80;92.20;;;;;;5030201;28;20109;-66
2024/04/06 04:25:07;;;;;;;0.77;0.73;;;14.80;92.30;;;;;;5023663;28;20103;-65
2024/04/06 04:27:33;;;;;;;0.88;0.70;;;14.70;92.30;;;;;;5022817;28;20017;-66
2024/04/06 04:29:59;;;;;;;0.80;0.80;;;14.70;92.40;;;;;;5031585;28;20052;-66
2024/04/06 04:32:24;;;;;;;1.15;0.77;;;14.70;92.40;;;;;;5028590;28;20112;-67
2024/04/06 04:34:50;;;;;;;0.60;0.60;;;14.70;92.40;;;;;;5023291;28;20025;-66
2024/04/06 04:37:15;;;;;;;0.82;0.70;;;14.60;92.50;;;;;;5021440;28;20041;-65
2024/04/06 04:39:41;;;;;;;1.17;0.82;;;14.60;92.50;;;;;;5025664;28;20054;-65
2024/04/06 04:42:07;;;;;;;0.80;0.80;;;14.60;92.60;;;;;;5035390;28;20029;-66
2024/04/06 04:44:32;;;;;;;0.95;0.80;;;14.60;92.60;;;;;;5025807;28;20036;-66
2024/04/06 04:46:58;;;;;;;0.70;0.60;;;14.50;92.70;;;;;;5020657;28;20026;-66
2024/04/06 04:49:25;;;;;;;1.00;0.90;;;14.50;92.80;;;;;;5029152;28;20030;-64
2024/04/06 04:51:50;;;;;;;0.85;0.73;;;14.50;92.80;;;;;;5029098;28;20096;-65
2024/04/06 04:54:16;;;;;;;0.80;0.70;;;14.50;92.90;;;;;;5023353;28;20152;-66
2024/04/06 04:56:42;;;;;;;1.23;0.77;;;14.40;92.90;;;;;;5028282;28;20100;-67
2024/04/06 04:59:07;;;;;;;1.10;0.85;;;14.40;93.00;;;;;;5032565;28;20037;-65
2024/04/06 05:01:33;;;;;;;1.42;0.98;;;14.40;93.10;;;;;;5030045;28;20083;-67
2024/04/06 05:03:58;;;;;;;1.65;0.95;;;14.40;93.20;;;;;;5030055;28;20025;-66
2024/04/06 05:06:24;;;;;;;0.70;0.70;;;14.40;93.20;;;;;;5030012;28;20032;-65
2024/04/06 05:08:49;;;;;;;1.67;1.00;;;14.40;93.30;;;;;;5030237;28;20029;-67
2024/04/06 05:11:15;;;;;;;1.23;1.10;;;14.40;93.30;;;;;;5028328;28;20029;-66
2024/04/06 05:13:41;;;;;;;1.88;0.98;;;14.40;93.20;;;;;;5032216;28;20021;-66
2024/04/06 05:16:06;;;;;;;1.73;1.20;;;14.40;93.20;;;;;;5031885;28;20025;-67
2024/04/06 05:18:32;;;;;;;2.33;1.10;;;14.40;93.40;;;;;;5023854;28;20033;-66
2024/04/06 05:20:58;;;;;;;1.15;1.05;;;14.40;93.40;;;;;;5038952;28;20060;-66
2024/04/06 05:23:27;;;;;;;1.95;1.20;;;14.40;93.50;;;;;;5028237;28;20128;-68
2024/04/06 05:25:53;;;;;;;1.48;1.20;;;14.40;93.50;;;;;;5032477;28;20032;-65
2024/04/06 05:28:21;;;;;;;1.52;1.27;;;14.40;93.80;;;;;;5027739;28;20013;-67
2024/04/06 05:30:48;;;;;;;2.13;1.20;;;14.40;94.20;;;;;;5029697;28;20061;-67
2024/04/06 05:33:15;;;;;;;2.80;1.20;;;14.30;94.10;;;;;;5035216;28;20076;-67
2024/04/06 05:35:42;;;;;;;1.73;1.30;;;14.40;94.20;;;;;;5031019;28;20053;-66
2024/04/06 05:38:07;;;;;;;1.38;1.10;;;14.60;94.10;;;;;;5030674;28;20464;-66
2024/04/06 05:40:36;;;;;;;1.10;0.93;;;14.80;93.70;;;;;;5029122;28;20100;-65
2024/04/06 05:43:02;;;;;;;1.23;1.10;;;15.00;93.40;;;;;;5033457;28;20024;-67
2024/04/06 05:45:28;;;;;;;3.08;1.50;;;15.00;93.10;;;;;;5031723;28;20041;-67
2024/04/06 05:47:53;;;;;;;1.98;1.52;;;15.00;93.10;;;;;;5030322;28;20052;-66
2024/04/06 05:50:19;;;;;;;1.30;1.20;;;15.00;93.30;;;;;;5041037;28;20017;-67
2024/04/06 05:52:44;;;;;;;2.03;1.17;;;15.00;93.20;;;;;;5035326;28;20029;-66
2024/04/06 05:55:10;;;;;;;1.88;1.10;;;15.00;93.20;;;;;;5026945;28;20033;-66
2024/04/06 05:57:35;;;;;;;1.73;1.10;;;15.10;93.10;;;;;;5022140;28;20037;-66
2024/04/06 06:00:01;;;;;;;1.20;1.10;;;15.30;93.00;;;;;;5035488;28;20021;-66
2024/04/06 06:02:27;;;;;;;2.05;1.10;;;15.60;92.90;;;;;;5019760;28;20033;-67
2024/04/06 06:04:53;;;;;;;1.20;1.10;;;16.00;92.30;;;;;;5027348;28;20025;-66
2024/04/06 06:07:20;;;;;;;2.17;1.10;;;16.10;91.60;;;;;;5026910;28;20022;-65
2024/04/06 06:09:46;;;;;;;1.30;1.02;;;16.00;91.50;;;;;;5021917;28;20120;-66
2024/04/06 06:12:11;;;;;;;2.00;1.27;;;15.80;91.70;;;;;;5022637;28;20105;-66
2024/04/06 06:14:37;;;;;;;2.55;1.40;;;15.70;92.00;;;;;;5029506;28;20128;-65
2024/04/06 06:17:02;;;;;;;2.38;1.17;;;15.90;91.90;;;;;;5028524;28;20460;-66
2024/04/06 06:19:28;;;;;;;1.40;1.30;;;16.10;92.00;;;;;;5038372;28;20504;-66
2024/04/06 06:21:53;;;;;;;2.13;1.30;;;17.00;91.60;;;;;;5034561;28;20029;-66
2024/04/06 06:24:19;;;;;;;2.88;1.60;;;18.40;90.10;;;;;;5027942;28;20017;-67
2024/04/06 06:26:44;;;;;;;1.77;1.50;;;19.40;86.60;;;;;;5030326;28;20037;-66
2024/04/06 06:29:10;;;;;;;2.20;1.40;;;19.60;83.30;;;;;;5025806;28;20022;-65
2024/04/06 06:31:35;;;;;;;2.35;1.40;;;18.70;83.10;;;;;;5034517;28;20025;-66
2024/04/06 06:34:01;;;;;;;1.75;1.30;;;18.10;85.20;;;;;;5031975;28;20073;-65
2024/04/06 06:36:26;;;;;;;1.50;1.27;;;17.60;86.60;;;;;;5035865;28;20040;-65
2024/04/06 06:38:52;;;;;;;2.03;1.10;;;17.20;88.20;;;;;;5027674;28;20156;-65
2024/04/06 06:41:18;;;;;;;1.98;1.38;;;17.50;89.80;;;;;;5035527;28;20104;-67
2024/04/06 06:43:43;;;;;;;1.10;0.90;;;19.10;87.40;;;;;;5033093;28;20036;-66
2024/04/06 06:46:09;;;;;;;1.40;1.00;;;20.70;83.40;;;;;;5030711;28;20026;-66
2024/04/06 06:48:34;;;;;;;1.75;1.08;;;21.50;79.60;;;;;;5033056;28;20063;-66
2024/04/06 06:51:00;;;;;;;3.78;1.00;;;21.30;79.20;;;;;;5039867;28;20029;-66
2024/04/06 06:53:26;;;;;;;1.20;1.00;;;22.10;78.10;;;;;;5033254;28;20036;-65
2024/04/06 06:55:51;;;;;;;1.42;1.20;;;22.80;76.00;;;;;;5031476;28;20033;-66
2024/04/06 06:58:17;;;;;;;1.00;0.90;;;22.60;75.10;;;;;;5041507;28;20134;-66
2024/04/06 07:00:48;;;;;;;1.45;1.00;;;22.00;76.00;;;;;;5037180;28;20420;-65
2024/04/06 07:03:14;;;;;;;;;;;21.90;75.70;;;;;;5031178;28;20091;-65
2024/04/06 07:05:39;;;;;;;1.73;0.93;;;21.10;76.70;;;;;;5031463;28;19912;-65
2024/04/06 07:08:05;;;;;;;2.05;0.90;;;21.70;77.00;;;;;;5035404;28;20037;-67
2024/04/06 07:10:37;;;;;;;3.10;1.00;;;22.70;75.80;;;;;;5031739;28;20028;-66
2024/04/06 07:13:03;;;;;;;1.63;0.77;;;23.70;73.10;;;;;;5030220;28;20026;-67
2024/04/06 07:15:28;;;;;;;1.98;0.90;;;24.50;71.70;;;;;;5034305;28;20031;-64
2024/04/06 07:17:54;;;;;;;0.75;0.70;;;25.10;70.00;;;;;;5041279;28;20025;-66
2024/04/06 07:20:19;;;;;;;1.38;0.80;;;25.80;68.70;;;;;;5038358;28;20068;-65
2024/04/06 07:22:45;;;;;;;1.73;0.98;;;26.50;67.00;;;;;;5030316;28;20068;-65
2024/04/06 07:25:11;;;;;;;1.73;0.70;;;26.70;66.30;;;;;;5023221;28;20041;-65
2024/04/06 07:27:36;;;;;;;0.80;0.70;;;27.10;65.30;;;;;;5026403;28;20013;-65
2024/04/06 07:30:02;;;;;;;1.40;0.90;;;27.40;64.40;;;;;;5028382;28;20009;-65
2024/04/06 07:32:28;;;;;;;1.88;0.82;;;27.40;63.60;;;;;;5031294;28;20057;-65
2024/04/06 07:34:53;;;;;;;2.17;1.30;;;27.00;64.60;;;;;;5031954;28;20060;-64
2024/04/06 07:37:19;;;;;;;2.30;0.90;;;26.50;63.70;;;;;;5030651;28;20102;-65
2024/04/06 07:39:45;;;;;;;1.23;1.00;;;26.00;64.40;;;;;;5024646;28;20026;-65
2024/04/06 07:42:11;;;;;;;2.15;1.10;;;26.40;64.40;;;;;;5029657;28;20025;-65
2024/04/06 07:44:36;;;;;;;1.33;0.90;;;27.00;63.40;;;;;;5026034;28;20024;-65
2024/04/06 07:47:02;;;;;;;1.55;0.70;;;27.00;62.00;;;;;;5027345;28;20592;-67
2024/04/06 07:49:28;;;;;;;1.73;0.80;;;27.20;61.80;;;;;;5025063;28;21455;-65
2024/04/06 07:51:54;;;;;;;1.52;1.08;;;27.50;61.10;;;;;;5023368;28;20040;-66
2024/04/06 07:54:20;;;;;;;1.30;0.80;;;27.30;60.70;;;;;;5026132;28;20025;-67
2024/04/06 07:56:45;;;;;;;1.50;0.82;;;27.20;60.90;;;;;;5027371;28;20105;-66
2024/04/06 07:59:11;;;;;;;3.85;1.13;;;27.00;58.60;;;;;;5026562;28;20029;-65
2024/04/06 08:01:36;;;;;;;2.70;1.15;;;26.50;60.00;;;;;;5026714;28;20108;-65
2024/04/06 08:04:02;;;;;;;2.53;1.20;;;26.00;59.80;;;;;;5027468;28;20515;-65
2024/04/06 08:06:27;;;;;;;1.52;1.05;;;24.90;61.00;;;;;;5024311;28;20041;-65
2024/04/06 08:08:53;;;;;;;2.58;1.30;;;23.80;63.10;;;;;;5029678;28;20581;-64
2024/04/06 08:11:18;;;;;;;3.75;0.93;;;23.20;65.10;;;;;;5026689;28;20022;-66
2024/04/06 08:13:44;;;;;;;0.82;0.80;;;22.90;66.30;;;;;;5026529;28;20388;-66
2024/04/06 08:16:10;;;;;;;2.38;1.05;;;22.70;66.40;;;;;;5029448;28;20075;-66
2024/04/06 08:18:35;;;;;;;1.90;0.90;;;22.50;66.30;;;;;;5022534;28;20164;-65
2024/04/06 08:21:01;;;;;;;2.25;0.93;;;22.30;66.70;;;;;;5030184;28;20029;-66
2024/04/06 08:23:27;;;;;;;2.08;1.00;;;22.10;66.90;;;;;;5021399;28;20568;-66
2024/04/06 08:25:55;;;;;;;2.05;1.05;;;21.90;67.70;;;;;;5026656;28;20524;-67
2024/04/06 08:28:21;;;;;;;2.25;1.00;;;21.60;68.60;;;;;;5024777;28;20018;-66
2024/04/06 08:30:46;;;;;;;3.10;1.13;;;21.40;69.10;;;;;;5026874;28;20034;-67
2024/04/06 08:33:12;;;;;;;2.25;1.10;;;21.20;69.60;;;;;;5027133;28;20021;-66
2024/04/06 08:35:37;;;;;;;3.00;0.90;;;21.00;69.40;;;;;;5027422;28;20029;-67
2024/04/06 08:38:04;;;;;;;1.88;1.20;;;20.90;70.40;;;;;;5027085;28;20037;-67
2024/04/06 08:40:30;;;;;;;2.03;1.10;;;20.90;70.80;;;;;;5025613;28;21017;-67
2024/04/06 08:43:04;;;;;;;2.83;1.15;;;20.80;70.60;;;;;;5024308;28;20025;-67
2024/04/06 08:45:31;;;;;;;3.28;1.20;;;20.70;70.70;;;;;;5022086;28;20037;-67
2024/04/06 08:47:57;;;;;;;3.20;1.20;;;20.70;70.90;;;;;;5026941;28;20013;-67
2024/04/06 08:50:23;;;;;;;2.03;1.00;;;20.70;70.70;;;;;;5026965;28;20034;-66
2024/04/06 08:52:49;;;;;;;1.88;1.00;;;20.70;70.90;;;;;;5026149;28;20037;-66
2024/04/06 08:55:14;;;;;;;1.98;1.00;;;20.70;70.70;;;;;;5025464;28;20116;-66
2024/04/06 08:57:40;;;;;;;1.58;1.00;;;20.60;70.80;;;;;;5026906;28;20025;-66
2024/04/06 09:00:10;;;;;;;1.27;1.10;;;20.60;70.30;;;;;;5029436;28;20388;-67
2024/04/06 09:02:36;;;;;;;1.60;1.10;;;20.60;70.30;;;;;;5025559;28;20076;-66
2024/04/06 09:05:03;;;;;;;2.53;1.20;;;20.60;70.80;;;;;;5024487;28;20034;-67
2024/04/06 09:07:29;;;;;;;2.05;1.00;;;20.60;70.20;;;;;;5027112;28;20472;-66
2024/04/06 09:09:54;;;;;;;1.92;1.20;;;20.60;70.50;;;;;;5030832;28;20017;-67
2024/04/06 09:12:20;;;;;;;1.10;0.95;;;20.70;70.40;;;;;;5031052;28;20017;-66
2024/04/06 09:14:47;;;;;;;2.15;1.10;;;20.80;69.80;;;;;;5026967;28;20044;-66
2024/04/06 09:17:21;;;;;;;1.08;0.90;;;20.80;70.10;;;;;;5027282;28;20017;-67
2024/04/06 09:19:47;;;;;;;1.17;0.90;;;20.90;70.20;;;;;;5029221;28;20564;-66
2024/04/06 09:22:12;;;;;;;2.05;1.20;;;20.90;70.40;;;;;;5030265;28;20021;-66
2024/04/06 09:24:38;;;;;;;1.92;1.20;;;21.00;70.20;;;;;;5029289;28;20506;-66
2024/04/06 09:27:09;;;;;;;1.52;1.17;;;21.00;69.20;;;;;;5025302;28;20064;-66
2024/04/06 09:29:35;;;;;;;2.13;1.13;;;21.10;69.50;;;;;;5028791;28;20059;-66
2024/04/06 09:32:03;;;;;;;2.53;1.20;;;21.10;68.90;;;;;;5022358;28;20018;-66
2024/04/06 09:34:29;;;;;;;2.80;1.35;;;21.20;68.80;;;;;;5026578;28;20434;-67
2024/04/06 09:37:07;;;;;;;1.65;1.00;;;21.20;69.00;;;;;;5031152;28;20026;-66
2024/04/06 09:39:34;;;;;;;2.03;1.08;;;21.30;68.90;;;;;;5031105;28;20032;-66
2024/04/06 09:42:01;;;;;;;2.67;1.25;;;21.40;68.70;;;;;;5029070;28;20095;-66
2024/04/06 09:44:27;;;;;;;1.63;1.10;;;21.50;68.20;;;;;;5030300;28;20025;-66
2024/04/06 09:46:53;;;;;;;2.15;1.25;;;21.50;68.60;;;;;;5032123;28;20022;-65
2024/04/06 09:49:26;;;;;;;1.70;0.98;;;21.50;68.50;;;;;;5035814;28;20017;-66
2024/04/06 09:51:52;;;;;;;1.52;0.90;;;21.50;68.30;;;;;;5017355;28;20029;-66
2024/04/06 09:54:19;;;;;;;2.55;0.90;;;21.60;68.10;;;;;;5030195;28;20025;-66
2024/04/06 09:56:46;;;;;;;1.35;0.90;;;21.60;67.90;;;;;;5036719;28;20086;-67
2024/04/06 09:59:22;;;;;;;2.75;1.27;;;21.70;68.30;;;;;;5033651;28;20443;-66
2024/04/06 10:01:47;;;;;;;2.33;1.20;;;21.80;67.50;;;;;;5026094;28;20082;-66
2024/04/06 10:04:23;;;;;;;1.48;0.98;;;21.80;67.40;;;;;;5032825;28;20488;-67
2024/04/06 10:06:51;;;;;;;1.17;0.98;;;21.80;67.00;;;;;;5031222;28;20025;-67
2024/04/06 10:09:17;;;;;;;1.45;1.00;;;21.90;66.70;;;;;;5019289;28;20022;-67
2024/04/06 10:11:42;;;;;;;2.67;1.10;;;21.90;66.80;;;;;;5034659;28;20047;-67
2024/04/06 10:14:09;;;;;;;1.58;1.00;;;21.90;66.40;;;;;;5035367;28;20056;-66
2024/04/06 10:16:39;;;;;;;2.75;1.20;;;21.90;66.60;;;;;;5022133;28;20071;-67
2024/04/06 10:19:06;;;;;;;1.73;1.00;;;21.90;66.10;;;;;;5021886;28;20033;-66
2024/04/06 10:21:33;;;;;;;1.58;0.90;;;21.90;65.60;;;;;;5025735;28;20608;-67
2024/04/06 10:24:02;;;;;;;1.50;0.95;;;22.00;66.20;;;;;;5027002;28;20032;-66
2024/04/06 10:26:28;;;;;;;2.50;1.10;;;22.00;66.20;;;;;;5026987;28;20432;-67
2024/04/06 10:28:54;;;;;;;3.45;1.00;;;22.10;66.20;;;;;;5025116;28;20061;-67
2024/04/06 10:31:19;;;;;;;1.42;0.93;;;22.10;66.70;;;;;;5021172;28;20476;-67
2024/04/06 10:33:45;;;;;;;2.33;1.10;;;22.20;66.30;;;;;;5022531;28;20120;-66
2024/04/06 10:36:11;;;;;;;1.20;1.00;;;22.20;65.90;;;;;;5028050;28;20022;-66
2024/04/06 10:38:39;;;;;;;1.10;1.00;;;22.20;66.00;;;;;;5031043;28;20457;-67
2024/04/06 10:41:06;;;;;;;0.70;0.70;;;22.30;66.10;;;;;;5031179;28;20112;-67
2024/04/06 10:43:32;;;;;;;1.65;0.95;;;22.50;65.80;;;;;;5021874;28;20029;-66
2024/04/06 10:45:59;;;;;;;0.98;0.90;;;22.50;65.90;;;;;;5023244;28;20036;-67
2024/04/06 10:48:25;;;;;;;1.20;0.95;;;22.60;65.40;;;;;;5022704;28;20029;-67
2024/04/06 10:50:51;;;;;;;0.90;0.90;;;22.60;65.60;;;;;;5024159;28;20025;-66
2024/04/06 10:53:18;;;;;;;1.50;1.00;;;22.60;65.50;;;;;;5027439;28;20218;-66
2024/04/06 10:55:45;;;;;;;1.25;0.93;;;22.50;65.20;;;;;;5029564;28;20028;-67
2024/04/06 10:58:11;;;;;;;1.90;1.00;;;22.50;64.90;;;;;;5025961;28;20587;-67
2024/04/06 11:00:39;;;;;;;1.20;1.00;;;22.50;65.40;;;;;;5029219;28;20030;-67
2024/04/06 11:03:07;;;;;;;1.30;0.90;;;22.60;65.40;;;;;;5033561;28;20479;-66
2024/04/06 11:05:37;;;;;;;2.15;1.02;;;22.70;65.40;;;;;;5029720;28;20036;-67
2024/04/06 11:08:06;;;;;;;1.50;0.98;;;22.80;65.20;;;;;;5027097;28;20014;-67
2024/04/06 11:10:32;;;;;;;2.78;1.00;;;22.90;65.20;;;;;;5020581;28;20551;-67
2024/04/06 11:12:58;;;;;;;1.30;0.80;;;22.90;65.10;;;;;;5025560;28;20029;-67
2024/04/06 11:15:26;;;;;;;1.13;0.77;;;23.00;64.50;;;;;;5018641;28;20037;-67
2024/04/06 11:17:53;;;;;;;2.67;1.10;;;23.00;64.30;;;;;;5032886;28;20036;-66
2024/04/06 11:20:19;;;;;;;3.45;1.15;;;23.10;62.80;;;;;;5028047;28;20025;-67
2024/04/06 11:22:45;;;;;;;5.65;1.00;;;23.10;63.30;;;;;;5039165;28;20025;-67
2024/04/06 11:25:19;;;;;;;1.27;0.90;;;23.20;62.70;;;;;;5029899;28;20112;-67
2024/04/06 11:27:49;;;;;;;1.15;0.82;;;23.40;62.30;;;;;;5027403;28;20113;-67
2024/04/06 11:30:18;;;;;;;1.27;1.00;;;23.40;62.60;;;;;;5027330;28;20392;-67
2024/04/06 11:32:45;;;;;;;1.17;0.88;;;23.50;62.90;;;;;;5023973;28;20113;-67
2024/04/06 11:35:11;;;;;;;2.05;1.00;;;23.60;62.90;;;;;;5022490;28;20021;-67
2024/04/06 11:37:38;;;;;;;2.70;1.50;;;23.60;61.80;;;;;;5027916;28;20044;-67
2024/04/06 11:40:04;;;;;;;2.45;1.40;;;23.60;61.50;;;;;;5036391;28;20040;-67
2024/04/06 11:42:30;;;;;;;1.20;0.90;;;23.60;61.70;;;;;;5036544;28;20033;-68
2024/04/06 11:44:55;;;;;;;1.13;1.00;;;23.60;62.30;;;;;;5023452;28;20021;-67
2024/04/06 11:47:21;;;;;;;1.52;0.90;;;23.80;62.30;;;;;;5037431;28;20531;-67
2024/04/06 11:49:48;;;;;;;1.55;0.88;;;23.90;62.00;;;;;;5038963;28;20025;-67
2024/04/06 11:52:13;;;;;;;1.85;1.10;;;23.90;61.70;;;;;;5026624;28;20218;-66
2024/04/06 11:54:39;;;;;;;1.83;1.20;;;24.00;61.30;;;;;;5025741;28;20104;-67
2024/04/06 11:57:05;;;;;;;1.92;1.20;;;23.90;60.90;;;;;;5030440;28;20057;-67
2024/04/06 11:59:30;;;;;;;2.38;1.20;;;23.90;61.20;;;;;;5032705;28;20087;-70
2024/04/06 12:01:57;;;;;;;0.85;0.85;;;23.90;61.20;;;;;;5036243;28;20078;-67
2024/04/06 12:04:22;;;;;;;1.73;1.00;;;24.00;61.30;;;;;;5037727;28;20036;-68
2024/04/06 12:06:48;;;;;;;2.17;1.30;;;24.10;61.40;;;;;;5030536;28;20021;-67
2024/04/06 12:09:14;;;;;;;1.30;0.88;;;24.10;60.90;;;;;;5032957;28;20036;-67
2024/04/06 12:11:39;;;;;;;2.85;0.82;;;24.20;61.10;;;;;;5032172;28;20036;-67
2024/04/06 12:14:05;;;;;;;1.02;0.70;;;24.30;61.30;;;;;;5036366;28;20143;-67
2024/04/06 12:16:31;;;;;;;1.25;0.90;;;24.50;61.00;;;;;;5032782;28;20018;-67
2024/04/06 12:18:58;;;;;;;1.20;0.90;;;24.50;60.20;;;;;;5039758;28;20619;-68
2024/04/06 12:21:24;;;;;;;1.33;0.90;;;24.60;60.20;;;;;;5033322;28;20479;-67
2024/04/06 12:23:49;;;;;;;2.05;1.13;;;24.70;60.30;;;;;;5040548;28;20041;-68
2024/04/06 12:26:16;;;;;;;1.00;0.85;;;24.80;59.30;;;;;;5039361;28;20031;-66
2024/04/06 12:28:41;;;;;;;2.03;1.00;;;25.00;58.90;;;;;;5034765;28;20021;-67
2024/04/06 12:31:07;;;;;;;1.05;0.93;;;25.00;58.80;;;;;;5038117;28;20018;-67
2024/04/06 12:33:32;;;;;;;1.70;0.90;;;25.30;57.90;;;;;;5032491;28;20033;-66
2024/04/06 12:35:58;;;;;;;1.85;1.08;;;25.60;57.80;;;;;;5039895;28;20029;-68
2024/04/06 12:38:24;;;;;;;1.73;0.88;;;25.60;57.40;;;;;;5028990;28;20034;-67
2024/04/06 12:40:50;;;;;;;1.20;0.77;;;25.60;57.20;;;;;;5030319;28;20111;-67
2024/04/06 12:43:16;;;;;;;1.63;0.70;;;25.60;57.30;;;;;;5030036;28;20028;-67